sensor_id;sensor_type;location;lat;lon;timestamp;P1;durP1;ratioP1;P2;durP2;ratioP2
15218;SDS011;15623;53.986;11.676;2023-09-19T00:00:31;1.25;;;1.15;;
15218;SDS011;15623;53.986;11.676;2023-09-19T00:02:59;1.20;;;1.10;;
15218;SDS011;15623;53.986;11.676;2023-09-19T00:05:26;3.10;;;1.17;;
15218;SDS011;15623;53.986;11.676;2023-09-19T00:07:54;1.10;;;1.10;;
15218;SDS011;15623;53.986;11.676;2023-09-19T00:10:23;1.90;;;1.20;;
15218;SDS011;15623;53.986;11.676;2023-09-19T00:12:52;2.65;;;1.30;;
15218;SDS011;15623;53.986;11.676;2023-09-19T00:15:20;1.60;;;1.40;;
15218;SDS011;15623;53.986;11.676;2023-09-19T00:17:49;1.80;;;1.30;;
15218;SDS011;15623;53.986;11.676;2023-09-19T00:20:17;2.28;;;1.20;;
15218;SDS011;15623;53.986;11.676;2023-09-19T00:22:46;2.28;;;1.20;;
15218;SDS011;15623;53.986;11.676;2023-09-19T00:25:14;2.45;;;1.80;;
15218;SDS011;15623;53.986;11.676;2023-09-19T00:27:41;1.65;;;1.08;;
15218;SDS011;15623;53.986;11.676;2023-09-19T00:30:10;1.77;;;1.30;;
15218;SDS011;15623;53.986;11.676;2023-09-19T00:32:42;1.58;;;1.10;;
15218;SDS011;15623;53.986;11.676;2023-09-19T00:35:13;1.10;;;1.10;;
15218;SDS011;15623;53.986;11.676;2023-09-19T00:37:41;1.85;;;1.20;;
15218;SDS011;15623;53.986;11.676;2023-09-19T00:40:09;1.48;;;1.30;;
15218;SDS011;15623;53.986;11.676;2023-09-19T00:42:38;1.38;;;1.27;;
15218;SDS011;15623;53.986;11.676;2023-09-19T00:45:06;1.33;;;1.15;;
15218;SDS011;15623;53.986;11.676;2023-09-19T00:47:36;3.65;;;1.50;;
15218;SDS011;15623;53.986;11.676;2023-09-19T00:50:03;2.00;;;1.17;;
15218;SDS011;15623;53.986;11.676;2023-09-19T00:52:34;1.05;;;1.02;;
15218;SDS011;15623;53.986;11.676;2023-09-19T00:55:03;1.83;;;1.30;;
15218;SDS011;15623;53.986;11.676;2023-09-19T00:57:31;1.50;;;1.40;;
15218;SDS011;15623;53.986;11.676;2023-09-19T00:59:59;1.50;;;1.40;;
15218;SDS011;15623;53.986;11.676;2023-09-19T01:02:31;2.50;;;1.30;;
15218;SDS011;15623;53.986;11.676;2023-09-19T01:04:58;1.95;;;1.60;;
15218;SDS011;15623;53.986;11.676;2023-09-19T01:07:26;2.92;;;1.40;;
15218;SDS011;15623;53.986;11.676;2023-09-19T01:09:56;3.15;;;1.30;;
15218;SDS011;15623;53.986;11.676;2023-09-19T01:12:27;2.78;;;1.58;;
15218;SDS011;15623;53.986;11.676;2023-09-19T01:14:59;3.53;;;1.52;;
15218;SDS011;15623;53.986;11.676;2023-09-19T01:17:31;2.53;;;1.60;;
15218;SDS011;15623;53.986;11.676;2023-09-19T01:20:10;1.70;;;1.50;;
15218;SDS011;15623;53.986;11.676;2023-09-19T01:22:42;3.17;;;1.50;;
15218;SDS011;15623;53.986;11.676;2023-09-19T01:25:19;2.00;;;1.80;;
15218;SDS011;15623;53.986;11.676;2023-09-19T01:28:01;6.22;;;2.03;;
15218;SDS011;15623;53.986;11.676;2023-09-19T01:30:40;3.28;;;2.28;;
15218;SDS011;15623;53.986;11.676;2023-09-19T01:33:09;2.70;;;1.92;;
15218;SDS011;15623;53.986;11.676;2023-09-19T01:35:37;1.85;;;1.63;;
15218;SDS011;15623;53.986;11.676;2023-09-19T01:38:05;1.92;;;1.50;;
15218;SDS011;15623;53.986;11.676;2023-09-19T01:40:35;2.88;;;1.60;;
15218;SDS011;15623;53.986;11.676;2023-09-19T01:43:05;2.63;;;1.67;;
15218;SDS011;15623;53.986;11.676;2023-09-19T01:45:37;3.33;;;1.70;;
15218;SDS011;15623;53.986;11.676;2023-09-19T01:48:13;2.42;;;1.88;;
15218;SDS011;15623;53.986;11.676;2023-09-19T01:50:44;2.53;;;1.70;;
15218;SDS011;15623;53.986;11.676;2023-09-19T01:53:15;4.03;;;1.98;;
15218;SDS011;15623;53.986;11.676;2023-09-19T01:55:46;5.82;;;1.90;;
15218;SDS011;15623;53.986;11.676;2023-09-19T01:58:16;1.92;;;1.75;;
15218;SDS011;15623;53.986;11.676;2023-09-19T02:00:46;2.10;;;1.80;;
15218;SDS011;15623;53.986;11.676;2023-09-19T02:03:18;2.50;;;1.90;;
15218;SDS011;15623;53.986;11.676;2023-09-19T02:05:48;2.45;;;2.03;;
15218;SDS011;15623;53.986;11.676;2023-09-19T02:08:16;4.07;;;2.03;;
15218;SDS011;15623;53.986;11.676;2023-09-19T02:10:44;6.05;;;2.00;;
15218;SDS011;15623;53.986;11.676;2023-09-19T02:13:14;2.95;;;1.98;;
15218;SDS011;15623;53.986;11.676;2023-09-19T02:15:43;4.13;;;1.95;;
15218;SDS011;15623;53.986;11.676;2023-09-19T02:18:10;4.32;;;2.38;;
15218;SDS011;15623;53.986;11.676;2023-09-19T02:20:39;2.45;;;2.22;;
15218;SDS011;15623;53.986;11.676;2023-09-19T02:23:07;3.40;;;2.10;;
15218;SDS011;15623;53.986;11.676;2023-09-19T02:25:34;2.38;;;2.17;;
15218;SDS011;15623;53.986;11.676;2023-09-19T02:28:03;2.78;;;2.50;;
15218;SDS011;15623;53.986;11.676;2023-09-19T02:30:31;4.45;;;2.78;;
15218;SDS011;15623;53.986;11.676;2023-09-19T02:32:58;2.40;;;2.20;;
15218;SDS011;15623;53.986;11.676;2023-09-19T02:35:28;3.28;;;2.80;;
15218;SDS011;15623;53.986;11.676;2023-09-19T02:37:59;3.83;;;2.70;;
15218;SDS011;15623;53.986;11.676;2023-09-19T02:40:27;3.63;;;2.40;;
15218;SDS011;15623;53.986;11.676;2023-09-19T02:42:55;4.15;;;2.60;;
15218;SDS011;15623;53.986;11.676;2023-09-19T02:45:24;4.90;;;2.50;;
15218;SDS011;15623;53.986;11.676;2023-09-19T02:47:52;3.30;;;2.45;;
15218;SDS011;15623;53.986;11.676;2023-09-19T02:50:20;7.47;;;2.80;;
15218;SDS011;15623;53.986;11.676;2023-09-19T02:52:47;3.33;;;3.03;;
15218;SDS011;15623;53.986;11.676;2023-09-19T02:55:16;5.38;;;3.03;;
15218;SDS011;15623;53.986;11.676;2023-09-19T02:57:47;4.78;;;2.97;;
15218;SDS011;15623;53.986;11.676;2023-09-19T03:00:15;6.32;;;3.10;;
15218;SDS011;15623;53.986;11.676;2023-09-19T03:02:46;5.03;;;3.00;;
15218;SDS011;15623;53.986;11.676;2023-09-19T03:05:13;3.30;;;3.00;;
15218;SDS011;15623;53.986;11.676;2023-09-19T03:07:40;4.25;;;3.50;;
15218;SDS011;15623;53.986;11.676;2023-09-19T03:10:11;3.42;;;3.22;;
15218;SDS011;15623;53.986;11.676;2023-09-19T03:12:42;4.97;;;3.13;;
15218;SDS011;15623;53.986;11.676;2023-09-19T03:15:10;3.30;;;3.00;;
15218;SDS011;15623;53.986;11.676;2023-09-19T03:17:37;3.33;;;3.08;;
15218;SDS011;15623;53.986;11.676;2023-09-19T03:20:05;4.13;;;2.88;;
15218;SDS011;15623;53.986;11.676;2023-09-19T03:22:35;6.75;;;4.00;;
15218;SDS011;15623;53.986;11.676;2023-09-19T03:25:03;3.90;;;3.15;;
15218;SDS011;15623;53.986;11.676;2023-09-19T03:27:33;3.53;;;3.22;;
15218;SDS011;15623;53.986;11.676;2023-09-19T03:30:02;5.05;;;3.70;;
15218;SDS011;15623;53.986;11.676;2023-09-19T03:32:33;4.63;;;3.20;;
15218;SDS011;15623;53.986;11.676;2023-09-19T03:35:01;5.60;;;3.40;;
15218;SDS011;15623;53.986;11.676;2023-09-19T03:37:30;3.67;;;3.38;;
15218;SDS011;15623;53.986;11.676;2023-09-19T03:39:58;4.03;;;3.30;;
15218;SDS011;15623;53.986;11.676;2023-09-19T03:42:29;3.75;;;3.40;;
15218;SDS011;15623;53.986;11.676;2023-09-19T03:44:57;3.55;;;3.25;;
15218;SDS011;15623;53.986;11.676;2023-09-19T03:47:27;3.97;;;3.40;;
15218;SDS011;15623;53.986;11.676;2023-09-19T03:49:54;6.05;;;3.90;;
15218;SDS011;15623;53.986;11.676;2023-09-19T03:52:22;4.32;;;3.92;;
15218;SDS011;15623;53.986;11.676;2023-09-19T03:54:50;4.32;;;3.92;;
15218;SDS011;15623;53.986;11.676;2023-09-19T03:57:17;4.25;;;3.70;;
15218;SDS011;15623;53.986;11.676;2023-09-19T03:59:45;4.22;;;3.72;;
15218;SDS011;15623;53.986;11.676;2023-09-19T04:02:13;5.78;;;3.83;;
15218;SDS011;15623;53.986;11.676;2023-09-19T04:04:48;4.13;;;3.83;;
15218;SDS011;15623;53.986;11.676;2023-09-19T04:07:16;5.45;;;3.78;;
15218;SDS011;15623;53.986;11.676;2023-09-19T04:09:44;6.82;;;4.20;;
15218;SDS011;15623;53.986;11.676;2023-09-19T04:12:12;4.28;;;3.97;;
15218;SDS011;15623;53.986;11.676;2023-09-19T04:14:42;6.30;;;3.90;;
15218;SDS011;15623;53.986;11.676;2023-09-19T04:17:09;4.70;;;4.13;;
15218;SDS011;15623;53.986;11.676;2023-09-19T04:19:36;4.63;;;4.30;;
15218;SDS011;15623;53.986;11.676;2023-09-19T04:22:05;4.45;;;4.25;;
15218;SDS011;15623;53.986;11.676;2023-09-19T04:24:32;5.03;;;4.63;;
15218;SDS011;15623;53.986;11.676;2023-09-19T04:27:00;4.93;;;4.53;;
15218;SDS011;15623;53.986;11.676;2023-09-19T04:29:28;5.20;;;4.70;;
15218;SDS011;15623;53.986;11.676;2023-09-19T04:31:55;4.60;;;4.20;;
15218;SDS011;15623;53.986;11.676;2023-09-19T04:34:22;6.20;;;4.45;;
15218;SDS011;15623;53.986;11.676;2023-09-19T04:36:50;4.80;;;4.20;;
15218;SDS011;15623;53.986;11.676;2023-09-19T04:39:19;7.88;;;4.18;;
15218;SDS011;15623;53.986;11.676;2023-09-19T04:41:51;5.93;;;4.70;;
15218;SDS011;15623;53.986;11.676;2023-09-19T04:44:18;6.35;;;4.47;;
15218;SDS011;15623;53.986;11.676;2023-09-19T04:46:46;4.38;;;3.97;;
15218;SDS011;15623;53.986;11.676;2023-09-19T04:49:13;4.63;;;4.15;;
15218;SDS011;15623;53.986;11.676;2023-09-19T04:51:41;5.05;;;4.45;;
15218;SDS011;15623;53.986;11.676;2023-09-19T04:54:08;8.65;;;4.45;;
15218;SDS011;15623;53.986;11.676;2023-09-19T04:56:37;4.65;;;4.15;;
15218;SDS011;15623;53.986;11.676;2023-09-19T04:59:05;5.80;;;4.28;;
15218;SDS011;15623;53.986;11.676;2023-09-19T05:01:33;4.30;;;3.90;;
15218;SDS011;15623;53.986;11.676;2023-09-19T05:04:00;4.65;;;4.10;;
15218;SDS011;15623;53.986;11.676;2023-09-19T05:06:30;6.68;;;4.05;;
15218;SDS011;15623;53.986;11.676;2023-09-19T05:09:00;6.43;;;4.10;;
15218;SDS011;15623;53.986;11.676;2023-09-19T05:11:30;5.15;;;3.80;;
15218;SDS011;15623;53.986;11.676;2023-09-19T05:13:59;3.95;;;3.58;;
15218;SDS011;15623;53.986;11.676;2023-09-19T05:16:28;5.50;;;3.90;;
15218;SDS011;15623;53.986;11.676;2023-09-19T05:18:56;4.35;;;3.60;;
15218;SDS011;15623;53.986;11.676;2023-09-19T05:21:25;4.75;;;3.90;;
15218;SDS011;15623;53.986;11.676;2023-09-19T05:23:54;5.10;;;3.50;;
15218;SDS011;15623;53.986;11.676;2023-09-19T05:26:21;5.70;;;3.85;;
15218;SDS011;15623;53.986;11.676;2023-09-19T05:28:49;6.65;;;3.13;;
15218;SDS011;15623;53.986;11.676;2023-09-19T05:31:19;4.97;;;3.33;;
15218;SDS011;15623;53.986;11.676;2023-09-19T05:33:46;3.22;;;2.90;;
15218;SDS011;15623;53.986;11.676;2023-09-19T05:36:15;4.88;;;2.75;;
15218;SDS011;15623;53.986;11.676;2023-09-19T05:38:42;3.67;;;2.80;;
15218;SDS011;15623;53.986;11.676;2023-09-19T05:41:09;5.22;;;2.88;;
15218;SDS011;15623;53.986;11.676;2023-09-19T05:43:38;3.25;;;2.80;;
15218;SDS011;15623;53.986;11.676;2023-09-19T05:46:06;4.35;;;2.95;;
15218;SDS011;15623;53.986;11.676;2023-09-19T05:48:36;4.85;;;2.55;;
15218;SDS011;15623;53.986;11.676;2023-09-19T05:51:04;4.82;;;2.75;;
15218;SDS011;15623;53.986;11.676;2023-09-19T05:53:32;3.05;;;2.17;;
15218;SDS011;15623;53.986;11.676;2023-09-19T05:55:59;3.33;;;2.50;;
15218;SDS011;15623;53.986;11.676;2023-09-19T05:58:26;4.60;;;2.30;;
15218;SDS011;15623;53.986;11.676;2023-09-19T06:00:54;5.13;;;2.38;;
15218;SDS011;15623;53.986;11.676;2023-09-19T06:03:22;2.58;;;2.30;;
15218;SDS011;15623;53.986;11.676;2023-09-19T06:05:51;4.05;;;2.05;;
15218;SDS011;15623;53.986;11.676;2023-09-19T06:08:22;3.45;;;2.20;;
15218;SDS011;15623;53.986;11.676;2023-09-19T06:10:51;5.72;;;2.40;;
15218;SDS011;15623;53.986;11.676;2023-09-19T06:13:18;4.78;;;2.28;;
15218;SDS011;15623;53.986;11.676;2023-09-19T06:15:46;3.22;;;2.13;;
15218;SDS011;15623;53.986;11.676;2023-09-19T06:18:14;4.20;;;2.05;;
15218;SDS011;15623;53.986;11.676;2023-09-19T06:20:45;6.68;;;2.13;;
15218;SDS011;15623;53.986;11.676;2023-09-19T06:23:13;5.07;;;2.33;;
15218;SDS011;15623;53.986;11.676;2023-09-19T06:25:41;6.10;;;2.05;;
15218;SDS011;15623;53.986;11.676;2023-09-19T06:28:09;4.95;;;2.17;;
15218;SDS011;15623;53.986;11.676;2023-09-19T06:30:38;4.35;;;2.00;;
15218;SDS011;15623;53.986;11.676;2023-09-19T06:33:06;4.30;;;1.92;;
15218;SDS011;15623;53.986;11.676;2023-09-19T06:35:36;3.17;;;1.67;;
15218;SDS011;15623;53.986;11.676;2023-09-19T06:38:04;3.70;;;2.17;;
15218;SDS011;15623;53.986;11.676;2023-09-19T06:40:34;6.75;;;2.15;;
15218;SDS011;15623;53.986;11.676;2023-09-19T06:43:02;6.53;;;2.10;;
15218;SDS011;15623;53.986;11.676;2023-09-19T06:45:30;5.53;;;1.85;;
15218;SDS011;15623;53.986;11.676;2023-09-19T06:47:57;6.97;;;2.00;;
15218;SDS011;15623;53.986;11.676;2023-09-19T06:50:28;4.47;;;2.10;;
15218;SDS011;15623;53.986;11.676;2023-09-19T06:52:56;6.03;;;2.10;;
15218;SDS011;15623;53.986;11.676;2023-09-19T06:55:25;2.97;;;1.52;;
15218;SDS011;15623;53.986;11.676;2023-09-19T06:57:58;5.00;;;1.98;;
15218;SDS011;15623;53.986;11.676;2023-09-19T07:00:25;4.05;;;1.90;;
15218;SDS011;15623;53.986;11.676;2023-09-19T07:02:56;3.83;;;1.55;;
15218;SDS011;15623;53.986;11.676;2023-09-19T07:05:25;4.95;;;1.83;;
15218;SDS011;15623;53.986;11.676;2023-09-19T07:07:54;4.43;;;1.80;;
15218;SDS011;15623;53.986;11.676;2023-09-19T07:10:24;4.85;;;1.85;;
15218;SDS011;15623;53.986;11.676;2023-09-19T07:12:55;3.58;;;1.85;;
15218;SDS011;15623;53.986;11.676;2023-09-19T07:15:25;3.00;;;1.80;;
15218;SDS011;15623;53.986;11.676;2023-09-19T07:17:53;4.28;;;1.77;;
15218;SDS011;15623;53.986;11.676;2023-09-19T07:20:21;3.92;;;1.83;;
15218;SDS011;15623;53.986;11.676;2023-09-19T07:22:51;2.53;;;1.67;;
15218;SDS011;15623;53.986;11.676;2023-09-19T07:25:19;5.18;;;2.15;;
15218;SDS011;15623;53.986;11.676;2023-09-19T07:27:47;4.35;;;1.60;;
15218;SDS011;15623;53.986;11.676;2023-09-19T07:30:16;3.45;;;1.67;;
15218;SDS011;15623;53.986;11.676;2023-09-19T07:32:45;3.95;;;1.67;;
15218;SDS011;15623;53.986;11.676;2023-09-19T07:35:12;4.35;;;1.55;;
15218;SDS011;15623;53.986;11.676;2023-09-19T07:37:40;6.00;;;1.85;;
15218;SDS011;15623;53.986;11.676;2023-09-19T07:40:08;2.90;;;1.52;;
15218;SDS011;15623;53.986;11.676;2023-09-19T07:42:35;6.43;;;1.65;;
15218;SDS011;15623;53.986;11.676;2023-09-19T07:45:06;8.13;;;1.90;;
15218;SDS011;15623;53.986;11.676;2023-09-19T07:47:34;6.28;;;1.88;;
15218;SDS011;15623;53.986;11.676;2023-09-19T07:50:03;4.82;;;1.77;;
15218;SDS011;15623;53.986;11.676;2023-09-19T07:52:32;3.00;;;1.95;;
15218;SDS011;15623;53.986;11.676;2023-09-19T07:55:00;8.80;;;2.00;;
15218;SDS011;15623;53.986;11.676;2023-09-19T07:57:34;4.85;;;1.77;;
15218;SDS011;15623;53.986;11.676;2023-09-19T08:00:02;3.72;;;2.03;;
15218;SDS011;15623;53.986;11.676;2023-09-19T08:02:33;4.28;;;1.67;;
15218;SDS011;15623;53.986;11.676;2023-09-19T08:05:05;4.25;;;1.65;;
15218;SDS011;15623;53.986;11.676;2023-09-19T08:07:35;4.15;;;1.85;;
15218;SDS011;15623;53.986;11.676;2023-09-19T08:10:02;4.63;;;2.10;;
15218;SDS011;15623;53.986;11.676;2023-09-19T08:12:32;4.63;;;1.80;;
15218;SDS011;15623;53.986;11.676;2023-09-19T08:15:01;3.53;;;1.90;;
15218;SDS011;15623;53.986;11.676;2023-09-19T08:17:28;6.07;;;1.95;;
15218;SDS011;15623;53.986;11.676;2023-09-19T08:19:56;7.63;;;1.67;;
15218;SDS011;15623;53.986;11.676;2023-09-19T08:22:27;4.72;;;1.95;;
15218;SDS011;15623;53.986;11.676;2023-09-19T08:24:54;7.10;;;1.77;;
15218;SDS011;15623;53.986;11.676;2023-09-19T08:27:22;7.78;;;2.10;;
15218;SDS011;15623;53.986;11.676;2023-09-19T08:29:52;5.70;;;2.00;;
15218;SDS011;15623;53.986;11.676;2023-09-19T08:32:20;3.28;;;1.77;;
15218;SDS011;15623;53.986;11.676;2023-09-19T08:34:50;5.93;;;1.83;;
15218;SDS011;15623;53.986;11.676;2023-09-19T08:37:18;4.82;;;2.20;;
15218;SDS011;15623;53.986;11.676;2023-09-19T08:39:46;5.55;;;1.88;;
15218;SDS011;15623;53.986;11.676;2023-09-19T08:42:14;4.32;;;1.75;;
15218;SDS011;15623;53.986;11.676;2023-09-19T08:44:43;3.97;;;1.98;;
15218;SDS011;15623;53.986;11.676;2023-09-19T08:47:10;5.78;;;1.95;;
15218;SDS011;15623;53.986;11.676;2023-09-19T08:49:41;3.67;;;1.90;;
15218;SDS011;15623;53.986;11.676;2023-09-19T08:52:18;9.05;;;2.03;;
15218;SDS011;15623;53.986;11.676;2023-09-19T08:54:50;3.80;;;1.90;;
15218;SDS011;15623;53.986;11.676;2023-09-19T08:57:19;7.47;;;2.58;;
15218;SDS011;15623;53.986;11.676;2023-09-19T08:59:47;6.35;;;2.42;;
15218;SDS011;15623;53.986;11.676;2023-09-19T09:02:16;4.63;;;1.98;;
15218;SDS011;15623;53.986;11.676;2023-09-19T09:04:45;8.73;;;2.28;;
15218;SDS011;15623;53.986;11.676;2023-09-19T09:07:13;6.15;;;2.40;;
15218;SDS011;15623;53.986;11.676;2023-09-19T09:09:41;6.90;;;2.10;;
15218;SDS011;15623;53.986;11.676;2023-09-19T09:12:12;5.30;;;1.90;;
15218;SDS011;15623;53.986;11.676;2023-09-19T09:14:43;5.25;;;2.00;;
15218;SDS011;15623;53.986;11.676;2023-09-19T09:17:15;6.25;;;2.10;;
15218;SDS011;15623;53.986;11.676;2023-09-19T09:19:45;4.43;;;2.00;;
15218;SDS011;15623;53.986;11.676;2023-09-19T09:22:13;7.25;;;2.20;;
15218;SDS011;15623;53.986;11.676;2023-09-19T09:24:51;5.72;;;2.10;;
15218;SDS011;15623;53.986;11.676;2023-09-19T09:27:20;6.07;;;1.95;;
15218;SDS011;15623;53.986;11.676;2023-09-19T09:29:49;9.30;;;2.55;;
15218;SDS011;15623;53.986;11.676;2023-09-19T09:32:18;6.25;;;1.85;;
15218;SDS011;15623;53.986;11.676;2023-09-19T09:34:45;6.43;;;2.00;;
15218;SDS011;15623;53.986;11.676;2023-09-19T09:37:13;7.45;;;2.00;;
15218;SDS011;15623;53.986;11.676;2023-09-19T09:39:48;5.03;;;1.90;;
15218;SDS011;15623;53.986;11.676;2023-09-19T09:42:38;6.00;;;2.20;;
15218;SDS011;15623;53.986;11.676;2023-09-19T09:45:12;6.40;;;2.20;;
15218;SDS011;15623;53.986;11.676;2023-09-19T09:47:43;5.22;;;1.80;;
15218;SDS011;15623;53.986;11.676;2023-09-19T09:50:26;7.32;;;1.70;;
15218;SDS011;15623;53.986;11.676;2023-09-19T09:53:21;7.60;;;2.20;;
15218;SDS011;15623;53.986;11.676;2023-09-19T09:56:02;3.45;;;1.90;;
15218;SDS011;15623;53.986;11.676;2023-09-19T09:58:34;6.43;;;2.05;;
15218;SDS011;15623;53.986;11.676;2023-09-19T10:01:03;4.20;;;2.10;;
15218;SDS011;15623;53.986;11.676;2023-09-19T10:03:36;4.40;;;2.15;;
15218;SDS011;15623;53.986;11.676;2023-09-19T10:06:07;5.55;;;2.30;;
15218;SDS011;15623;53.986;11.676;2023-09-19T10:09:00;6.15;;;2.13;;
15218;SDS011;15623;53.986;11.676;2023-09-19T10:11:38;7.25;;;2.58;;
15218;SDS011;15623;53.986;11.676;2023-09-19T10:14:10;9.75;;;2.15;;
15218;SDS011;15623;53.986;11.676;2023-09-19T10:16:40;4.93;;;1.77;;
15218;SDS011;15623;53.986;11.676;2023-09-19T10:19:09;5.68;;;2.03;;
15218;SDS011;15623;53.986;11.676;2023-09-19T10:21:37;5.65;;;2.03;;
15218;SDS011;15623;53.986;11.676;2023-09-19T10:24:05;3.78;;;1.67;;
15218;SDS011;15623;53.986;11.676;2023-09-19T10:26:34;13.35;;;2.35;;
15218;SDS011;15623;53.986;11.676;2023-09-19T10:29:02;5.25;;;1.80;;
15218;SDS011;15623;53.986;11.676;2023-09-19T10:31:34;8.38;;;2.50;;
15218;SDS011;15623;53.986;11.676;2023-09-19T10:34:05;3.83;;;1.80;;
15218;SDS011;15623;53.986;11.676;2023-09-19T10:36:35;5.03;;;2.30;;
15218;SDS011;15623;53.986;11.676;2023-09-19T10:39:04;3.40;;;1.70;;
15218;SDS011;15623;53.986;11.676;2023-09-19T10:41:34;5.82;;;2.05;;
15218;SDS011;15623;53.986;11.676;2023-09-19T10:44:03;4.20;;;1.80;;
15218;SDS011;15623;53.986;11.676;2023-09-19T10:46:31;10.05;;;2.00;;
15218;SDS011;15623;53.986;11.676;2023-09-19T10:49:00;4.40;;;1.80;;
15218;SDS011;15623;53.986;11.676;2023-09-19T10:51:29;7.45;;;2.47;;
15218;SDS011;15623;53.986;11.676;2023-09-19T10:53:59;7.55;;;2.00;;
15218;SDS011;15623;53.986;11.676;2023-09-19T10:56:30;4.47;;;2.20;;
15218;SDS011;15623;53.986;11.676;2023-09-19T10:59:05;5.45;;;2.55;;
15218;SDS011;15623;53.986;11.676;2023-09-19T11:01:43;4.88;;;1.98;;
15218;SDS011;15623;53.986;11.676;2023-09-19T11:04:23;4.63;;;1.90;;
15218;SDS011;15623;53.986;11.676;2023-09-19T11:07:01;9.25;;;2.00;;
15218;SDS011;15623;53.986;11.676;2023-09-19T11:09:48;5.50;;;2.13;;
15218;SDS011;15623;53.986;11.676;2023-09-19T11:15:11;5.00;;;2.20;;
15218;SDS011;15623;53.986;11.676;2023-09-19T11:17:58;9.15;;;2.28;;
15218;SDS011;15623;53.986;11.676;2023-09-19T11:20:27;6.30;;;1.92;;
15218;SDS011;15623;53.986;11.676;2023-09-19T11:23:20;6.18;;;2.10;;
15218;SDS011;15623;53.986;11.676;2023-09-19T11:25:48;5.32;;;2.08;;
15218;SDS011;15623;53.986;11.676;2023-09-19T11:28:27;5.03;;;2.30;;
15218;SDS011;15623;53.986;11.676;2023-09-19T11:30:56;4.63;;;2.25;;
15218;SDS011;15623;53.986;11.676;2023-09-19T11:33:24;5.65;;;2.10;;
15218;SDS011;15623;53.986;11.676;2023-09-19T11:36:13;3.33;;;2.00;;
15218;SDS011;15623;53.986;11.676;2023-09-19T11:39:00;6.22;;;2.03;;
15218;SDS011;15623;53.986;11.676;2023-09-19T11:41:40;4.97;;;1.80;;
15218;SDS011;15623;53.986;11.676;2023-09-19T11:46:53;5.05;;;2.08;;
15218;SDS011;15623;53.986;11.676;2023-09-19T11:49:25;6.20;;;2.20;;
15218;SDS011;15623;53.986;11.676;2023-09-19T11:51:56;6.22;;;2.17;;
15218;SDS011;15623;53.986;11.676;2023-09-19T11:54:26;4.50;;;1.83;;
15218;SDS011;15623;53.986;11.676;2023-09-19T11:56:56;5.03;;;2.30;;
15218;SDS011;15623;53.986;11.676;2023-09-19T11:59:24;4.65;;;2.25;;
15218;SDS011;15623;53.986;11.676;2023-09-19T12:01:53;5.85;;;1.95;;
15218;SDS011;15623;53.986;11.676;2023-09-19T12:04:28;3.92;;;1.90;;
15218;SDS011;15623;53.986;11.676;2023-09-19T12:07:04;5.20;;;1.85;;
15218;SDS011;15623;53.986;11.676;2023-09-19T12:09:36;5.20;;;1.90;;
15218;SDS011;15623;53.986;11.676;2023-09-19T12:12:04;6.50;;;1.83;;
15218;SDS011;15623;53.986;11.676;2023-09-19T12:14:32;7.63;;;2.20;;
15218;SDS011;15623;53.986;11.676;2023-09-19T12:17:00;4.20;;;1.95;;
15218;SDS011;15623;53.986;11.676;2023-09-19T12:19:29;5.57;;;2.03;;
15218;SDS011;15623;53.986;11.676;2023-09-19T12:21:57;4.10;;;2.13;;
15218;SDS011;15623;53.986;11.676;2023-09-19T12:24:31;4.13;;;1.80;;
15218;SDS011;15623;53.986;11.676;2023-09-19T12:27:00;3.28;;;1.90;;
15218;SDS011;15623;53.986;11.676;2023-09-19T12:29:29;5.95;;;2.13;;
15218;SDS011;15623;53.986;11.676;2023-09-19T12:31:57;11.85;;;2.08;;
15218;SDS011;15623;53.986;11.676;2023-09-19T12:34:29;4.35;;;1.88;;
15218;SDS011;15623;53.986;11.676;2023-09-19T12:37:09;7.18;;;2.22;;
15218;SDS011;15623;53.986;11.676;2023-09-19T12:39:48;4.53;;;2.10;;
15218;SDS011;15623;53.986;11.676;2023-09-19T12:42:16;6.07;;;1.70;;
15218;SDS011;15623;53.986;11.676;2023-09-19T12:44:45;4.82;;;1.88;;
15218;SDS011;15623;53.986;11.676;2023-09-19T12:47:13;5.38;;;1.80;;
15218;SDS011;15623;53.986;11.676;2023-09-19T12:52:34;4.95;;;2.10;;
15218;SDS011;15623;53.986;11.676;2023-09-19T12:55:04;3.92;;;1.85;;
15218;SDS011;15623;53.986;11.676;2023-09-19T12:57:33;6.45;;;2.00;;
15218;SDS011;15623;53.986;11.676;2023-09-19T13:00:01;4.75;;;1.85;;
15218;SDS011;15623;53.986;11.676;2023-09-19T13:02:30;3.22;;;1.80;;
15218;SDS011;15623;53.986;11.676;2023-09-19T13:04:58;4.95;;;1.88;;
15218;SDS011;15623;53.986;11.676;2023-09-19T13:07:45;5.38;;;1.65;;
15218;SDS011;15623;53.986;11.676;2023-09-19T13:10:15;2.42;;;1.42;;
15218;SDS011;15623;53.986;11.676;2023-09-19T13:12:45;4.72;;;1.80;;
15218;SDS011;15623;53.986;11.676;2023-09-19T13:15:14;3.53;;;2.00;;
15218;SDS011;15623;53.986;11.676;2023-09-19T13:17:45;5.35;;;1.98;;
15218;SDS011;15623;53.986;11.676;2023-09-19T13:20:22;9.07;;;2.42;;
15218;SDS011;15623;53.986;11.676;2023-09-19T13:22:54;3.25;;;1.83;;
15218;SDS011;15623;53.986;11.676;2023-09-19T13:25:25;4.93;;;2.00;;
15218;SDS011;15623;53.986;11.676;2023-09-19T13:27:55;6.15;;;2.15;;
15218;SDS011;15623;53.986;11.676;2023-09-19T13:30:23;4.88;;;1.75;;
15218;SDS011;15623;53.986;11.676;2023-09-19T13:32:51;8.57;;;2.40;;
15218;SDS011;15623;53.986;11.676;2023-09-19T13:35:19;7.93;;;2.30;;
15218;SDS011;15623;53.986;11.676;2023-09-19T13:37:47;5.18;;;1.70;;
15218;SDS011;15623;53.986;11.676;2023-09-19T13:40:16;11.48;;;2.25;;
15218;SDS011;15623;53.986;11.676;2023-09-19T13:42:45;9.05;;;2.20;;
15218;SDS011;15623;53.986;11.676;2023-09-19T13:45:13;3.55;;;1.85;;
15218;SDS011;15623;53.986;11.676;2023-09-19T13:47:43;9.05;;;2.03;;
15218;SDS011;15623;53.986;11.676;2023-09-19T13:50:10;4.78;;;2.28;;
15218;SDS011;15623;53.986;11.676;2023-09-19T13:52:38;5.80;;;2.10;;
15218;SDS011;15623;53.986;11.676;2023-09-19T13:55:05;5.03;;;1.80;;
15218;SDS011;15623;53.986;11.676;2023-09-19T13:57:33;6.30;;;2.20;;
15218;SDS011;15623;53.986;11.676;2023-09-19T14:00:02;4.07;;;1.85;;
15218;SDS011;15623;53.986;11.676;2023-09-19T14:02:30;5.40;;;2.10;;
15218;SDS011;15623;53.986;11.676;2023-09-19T14:04:57;4.07;;;1.90;;
15218;SDS011;15623;53.986;11.676;2023-09-19T14:07:25;11.50;;;2.63;;
15218;SDS011;15623;53.986;11.676;2023-09-19T14:09:53;7.85;;;2.08;;
15218;SDS011;15623;53.986;11.676;2023-09-19T14:12:20;4.95;;;2.10;;
15218;SDS011;15623;53.986;11.676;2023-09-19T14:14:47;4.45;;;2.20;;
15218;SDS011;15623;53.986;11.676;2023-09-19T14:17:17;3.65;;;2.35;;
15218;SDS011;15623;53.986;11.676;2023-09-19T14:19:45;5.57;;;1.98;;
15218;SDS011;15623;53.986;11.676;2023-09-19T14:22:12;3.55;;;2.08;;
15218;SDS011;15623;53.986;11.676;2023-09-19T14:24:40;5.72;;;2.15;;
15218;SDS011;15623;53.986;11.676;2023-09-19T14:27:07;5.57;;;2.35;;
15218;SDS011;15623;53.986;11.676;2023-09-19T14:29:35;5.07;;;2.60;;
15218;SDS011;15623;53.986;11.676;2023-09-19T14:32:03;7.47;;;2.55;;
15218;SDS011;15623;53.986;11.676;2023-09-19T14:34:32;4.80;;;2.00;;
15218;SDS011;15623;53.986;11.676;2023-09-19T14:37:01;4.68;;;2.33;;
15218;SDS011;15623;53.986;11.676;2023-09-19T14:39:29;4.93;;;2.10;;
15218;SDS011;15623;53.986;11.676;2023-09-19T14:41:57;4.93;;;2.45;;
15218;SDS011;15623;53.986;11.676;2023-09-19T14:44:24;6.85;;;2.45;;
15218;SDS011;15623;53.986;11.676;2023-09-19T14:46:53;3.80;;;2.10;;
15218;SDS011;15623;53.986;11.676;2023-09-19T14:49:20;3.33;;;1.90;;
15218;SDS011;15623;53.986;11.676;2023-09-19T14:51:50;7.18;;;2.35;;
15218;SDS011;15623;53.986;11.676;2023-09-19T14:54:17;4.22;;;2.10;;
15218;SDS011;15623;53.986;11.676;2023-09-19T14:56:46;5.50;;;2.25;;